La ricerca ha trovato 3 risultati

da bubele
2 giugno 2009, 15:20
Forum: Discussioni generiche di Aviazione
Argomento: A330-200 Air France scomparso - Thread generico
Risposte: 1491
Visite : 228591

Re: A330-200 Air France scomparso - Thread generico

Non è il topo che rosicchia il cavo...... come scritto nel forum
Io continuo al momento a pensare a quanto successo al volo 111 della Swissair.
Tante cose sono cambiate dal 1998, ma siamo sicuri che all'interno dell'A 330 ci siano ovunque rilevatori di fumo? E se l'incendio si fosse sviluppato in un...
da bubele
2 giugno 2009, 10:33
Forum: Discussioni generiche di Aviazione
Argomento: A330-200 Air France scomparso - Thread generico
Risposte: 1491
Visite : 228591

Re: A330-200 Air France scomparso - Thread generico

Da profano, quanto successo all'airbus 330 mi riporta al 2 settembre del 1998, quando un md 11 della swissair si inabissò nell'oceano atlantico a sud ovest di Halifax. Fuoco in cabina dovuto ad un corto circuito causato dalla componentistica elettronica degli apparati di intrattenimento montati nell...
da bubele
1 giugno 2009, 14:49
Forum: Discussioni generiche di Aviazione
Argomento: A330-200 Air France scomparso - Thread generico
Risposte: 1491
Visite : 228591

Re: A330-200 Air France scomparso - Thread generico

SBRF 011200Z 19010KT 9999 SCT017 FEW022TCU BKN070 26/23 Q1013=